Latest Areodrome Forecast (TAF)

TAF VMMC 201100Z 2012/2118 14006KT 6000 FEW005 SCT012 BKN035 TEMPO 2012/2016 2500 BR TEMPO 2016/2021 1200 BR TEMPO 2021/2103 0300 FG VV001 TEMPO 2103/2108 2500 SHRA BR BECMG 2115/2118 36012KT=

Decoded TAF in plain language
Contents of Report Code Information
Report Type TAF Aerodrome Forecasts
Location VMMC Macao, China
Issuing Time 201100Z 20/02/2019 11:00 UTC
Period of Validity of Forecast 2012/2118 Between 20th 12:00 UTC and 21st 18:00 UTC
Surface Wind Direction and Speed 14006KT mean direction 140 degrees, speed 6 knots
Visibility 6000 6 kilometres
Weather    
Cloud FEW005 SCT012 BKN035 amount 1-2 oktas, base 500 feet;
amount 3-4 oktas, base 1200 feet;
amount 5-7 oktas, base 3500 feet
Expected Significant ChangesTEMPO 2012/2016 2500 BRtemporarily between 20th 12:00 UTC and 20th 16:00 UTC
visibility: 2500 metres
weather: mist
 TEMPO 2016/2021 1200 BRtemporarily between 20th 16:00 UTC and 20th 21:00 UTC
visibility: 1200 metres
weather: mist
 TEMPO 2021/2103 0300 FG VV001temporarily between 20th 21:00 UTC and 21st 03:00 UTC
visibility: 300 metres
weather: fog
 TEMPO 2103/2108 2500 SHRA BRtemporarily between 21st 03:00 UTC and 21st 08:00 UTC
visibility: 2500 metres
weather: rain shower; mist
 BECMG 2115/2118 36012KTbecoming between 21st 15:00 UTC and 21st 18:00 UTC
wind: mean direction 360 degrees, speed 12 knots

OTHER INTERNATIONAL AIRPORTS:
Weather Forecast (TAF)   Weather Report (METAR)